»·PEaware :: AAL225 KSAN-KLAS

AAL225 :: KSAN-KLAS

FLIGHT INFORMATION

Flight Status: Arrived
Operator:
American Airlines
More flights by this operator :: More flights under this callsign
Pilot: Michael R. (16974)
Aircraft: AIRBUS A320
(A320)
More flights by this aircraft type
Origin: KSAN San Diego Intl-Lindbergh
United States
Destination: KLAS McCarran Intl
United States
More flights between these airports :: More routes between these airports
Route: PADRZ2 CHKNN SEBBY YELAH MISEN KEPEC6
File this flight plan on PilotEdge
Remarks:
Altitude:
(Current/Filed)
29,000ft
Speed:
(Current/Filed)
482kts
Departed: 29-Jul-18 06:54 PM
Arrived: 29-Jul-18 07:48 PM
Distance/Time
Traveled:
225nm/0:53
Distance/Time
To Go:
Arrived

Flight Plot

Page will automatically refresh every two minutes.

Flight plan parsing failed; only flown route is shown


Map Options




Map Legend


Flown Route
Filed Route
Departure Airport
Arrival Airport
Navaid (VOR, NDB)
Fix

Horizontal Profiles

Position Reports

Time Latitude Longitude Heading Altitude Ground
Speed
29-Jul-18 18:27 32.733360 -117.199074 116 26ft 0kts
29-Jul-18 18:28 32.733360 -117.199074 116 26ft 0kts
29-Jul-18 18:29 32.733360 -117.199074 116 26ft 0kts
29-Jul-18 18:30 32.733360 -117.199074 116 26ft 0kts
29-Jul-18 18:31 32.733360 -117.199074 116 26ft 0kts
29-Jul-18 18:32 32.733360 -117.199074 116 26ft 0kts
29-Jul-18 18:33 32.733360 -117.199074 116 26ft 0kts
29-Jul-18 18:34 32.733360 -117.199074 116 26ft 0kts
29-Jul-18 18:35 32.733360 -117.199074 116 26ft 0kts
29-Jul-18 18:36 32.733360 -117.199074 116 26ft 0kts
29-Jul-18 18:37 32.733360 -117.199074 116 26ft 0kts
29-Jul-18 18:38 32.733360 -117.199074 116 26ft 0kts
29-Jul-18 18:39 32.733360 -117.199074 116 26ft 0kts
29-Jul-18 18:40 32.733360 -117.199074 116 26ft 0kts
29-Jul-18 18:41 32.733360 -117.199074 116 26ft 0kts
29-Jul-18 18:42 32.733361 -117.199074 116 26ft 0kts
29-Jul-18 18:43 32.733420 -117.199218 116 26ft 2kts
29-Jul-18 18:44 32.733442 -117.199829 17 26ft 2kts
29-Jul-18 18:45 32.733253 -117.199865 13 26ft 0kts
29-Jul-18 18:46 32.733253 -117.199864 13 26ft 0kts
29-Jul-18 18:47 32.733253 -117.199864 13 26ft 0kts
29-Jul-18 18:48 32.734133 -117.199637 13 26ft 9kts
29-Jul-18 18:49 32.734442 -117.199542 18 26ft 8kts
29-Jul-18 18:50 32.733742 -117.194734 106 26ft 22kts
29-Jul-18 18:51 32.731623 -117.185955 107 26ft 33kts
29-Jul-18 18:52 32.729502 -117.176786 78 26ft 3kts
29-Jul-18 18:53 32.729513 -117.176737 74 26ft 0kts
29-Jul-18 18:54 32.730308 -117.176347 289 26ft 9kts
29-Jul-18 18:55 32.736874 -117.203021 287 388ft 195kts
29-Jul-18 18:56 32.770528 -117.267017 303 3696ft 258kts
29-Jul-18 18:57 32.812787 -117.338923 309 7496ft 276kts
29-Jul-18 18:58 32.861124 -117.413824 310 10734ft 306kts
29-Jul-18 18:59 32.919723 -117.504638 309 12058ft 381kts
29-Jul-18 19:00 32.985715 -117.607639 309 14423ft 401kts
29-Jul-18 19:01 33.054238 -117.714682 310 16607ft 415kts
29-Jul-18 19:02 33.130121 -117.796969 320 18332ft 425kts
29-Jul-18 19:03 33.220832 -117.888595 322 20051ft 439kts
29-Jul-18 19:04 33.316688 -117.981805 321 21627ft 451kts
29-Jul-18 19:05 33.414336 -118.077379 321 23034ft 464kts
29-Jul-18 19:06 33.514523 -118.175764 321 24347ft 474kts
29-Jul-18 19:07 33.625299 -118.262251 341 25558ft 482kts
29-Jul-18 19:08 33.756064 -118.263276 21 26605ft 483kts
29-Jul-18 19:09 33.857781 -118.169290 57 27681ft 475kts
29-Jul-18 19:10 33.933268 -118.042252 57 28947ft 476kts
29-Jul-18 19:11 34.009735 -117.912882 57 29060ft 476kts
29-Jul-18 19:12 34.086120 -117.783477 55 29088ft 478kts
29-Jul-18 19:13 34.169586 -117.660382 53 29070ft 478kts
29-Jul-18 19:14 34.253595 -117.537286 53 29068ft 478kts
29-Jul-18 19:15 34.338070 -117.413095 53 29089ft 478kts
29-Jul-18 19:16 34.420592 -117.291358 53 29100ft 476kts
29-Jul-18 19:17 34.504178 -117.167614 53 29078ft 476kts
29-Jul-18 19:18 34.587840 -117.043324 52 29062ft 476kts
29-Jul-18 19:19 34.671515 -116.918578 51 28998ft 478kts
29-Jul-18 19:20 34.755243 -116.793315 51 29002ft 478kts
29-Jul-18 19:21 34.838657 -116.668160 50 29006ft 479kts
29-Jul-18 19:22 34.939348 -116.562280 38 29005ft 481kts
29-Jul-18 19:23 35.043955 -116.460730 36 27177ft 484kts
29-Jul-18 19:24 35.140368 -116.356264 43 23184ft 446kts
29-Jul-18 19:25 35.224755 -116.250635 44 21277ft 439kts
29-Jul-18 19:26 35.308858 -116.144914 44 19403ft 430kts
29-Jul-18 19:27 35.391044 -116.041276 45 17584ft 420kts
29-Jul-18 19:28 35.471234 -115.939850 45 15816ft 411kts
29-Jul-18 19:29 35.549472 -115.840589 45 14268ft 391kts
29-Jul-18 19:30 35.616437 -115.755536 45 13574ft 318kts
29-Jul-18 19:31 35.675111 -115.680664 45 13131ft 306kts
29-Jul-18 19:32 35.734994 -115.604015 45 13086ft 312kts
29-Jul-18 19:33 35.813931 -115.572146 2 13083ft 311kts
29-Jul-18 19:34 35.900461 -115.567517 2 13069ft 312kts
29-Jul-18 19:35 35.978793 -115.536533 58 12798ft 312kts
29-Jul-18 19:36 36.010903 -115.438500 67 11397ft 303kts
29-Jul-18 19:37 36.028969 -115.345256 94 10675ft 275kts
29-Jul-18 19:38 36.022341 -115.254465 94 9645ft 269kts
29-Jul-18 19:39 36.015915 -115.163954 93 8584ft 263kts
29-Jul-18 19:40 36.009860 -115.074467 93 7311ft 265kts
29-Jul-18 19:41 36.004393 -114.983485 93 5934ft 256kts
29-Jul-18 19:42 36.001320 -114.900995 72 4960ft 236kts
29-Jul-18 19:43 36.053180 -114.874404 357 4918ft 210kts
29-Jul-18 19:44 36.080877 -114.922684 251 4912ft 216kts
29-Jul-18 19:45 36.073953 -114.994279 269 4331ft 199kts
29-Jul-18 19:46 36.073771 -115.057362 269 3300ft 157kts
29-Jul-18 19:47 36.073690 -115.106866 268 2532ft 140kts
29-Jul-18 19:48 36.073665 -115.146829 275 2190ft 45kts
29-Jul-18 19:49 36.077700 -115.152737 336 2190ft 40kts
29-Jul-18 19:50 36.078710 -115.149955 93 2190ft 20kts
29-Jul-18 19:51 36.081654 -115.148008 66 2190ft 0kts
29-Jul-18 19:52 36.081654 -115.148008 66 2190ft 0kts
29-Jul-18 19:53 36.081654 -115.148008 66 2190ft 0kts
29-Jul-18 19:54 36.081654 -115.148008 66 2190ft 0kts
29-Jul-18 19:55 36.081654 -115.148008 66 2190ft 0kts
29-Jul-18 19:56 36.081654 -115.148008 66 2190ft 0kts
29-Jul-18 19:57 36.081654 -115.148008 66 2190ft 0kts
29-Jul-18 19:58 36.081654 -115.148008 66 2190ft 0kts
29-Jul-18 19:59 36.081654 -115.148008 66 2190ft 0kts
29-Jul-18 20:00 36.081654 -115.148008 66 2190ft 0kts
29-Jul-18 20:01 36.081654 -115.148008 66 2190ft 0kts
29-Jul-18 20:02 36.081654 -115.148008 66 2190ft 0kts
29-Jul-18 20:03 36.081654 -115.148008 66 2190ft 0kts

Navigation Log

Ident Type
Flight plan parsing failed, navigation log unavailable